createdAt,value
2023-03-21T00:01:29.437Z,19.78
2023-03-21T00:03:55.845Z,19.77
2023-03-21T00:06:22.864Z,19.77
2023-03-21T00:08:49.336Z,19.76
2023-03-21T00:11:15.689Z,19.76
2023-03-21T00:13:44.950Z,19.75
2023-03-21T00:16:16.364Z,19.75
2023-03-21T00:18:47.258Z,19.74
2023-03-21T00:21:40.696Z,19.73
2023-03-21T00:24:01.991Z,19.74
2023-03-21T00:26:28.359Z,19.73
2023-03-21T00:28:54.696Z,19.74
2023-03-21T00:31:21.016Z,19.73
2023-03-21T00:33:49.292Z,19.72
2023-03-21T00:36:15.975Z,19.71
2023-03-21T00:38:42.409Z,19.71
2023-03-21T00:41:19.248Z,19.70
2023-03-21T00:43:51.966Z,19.69
2023-03-21T00:46:18.656Z,19.70
2023-03-21T00:48:45.152Z,19.70
2023-03-21T00:51:13.336Z,19.69
2023-03-21T00:53:39.682Z,19.69
2023-03-21T00:56:06.025Z,19.69
2023-03-21T00:58:32.352Z,19.68
2023-03-21T01:00:58.766Z,19.68
2023-03-21T01:03:26.565Z,19.66
2023-03-21T01:06:05.424Z,19.67
2023-03-21T01:08:44.564Z,19.67
2023-03-21T01:11:17.691Z,19.65
2023-03-21T01:13:54.366Z,19.65
2023-03-21T01:16:24.534Z,19.65
2023-03-21T01:18:50.917Z,19.64
2023-03-21T01:21:17.259Z,19.64
2023-03-21T01:23:43.598Z,19.64
2023-03-21T01:26:10.250Z,19.64
2023-03-21T01:28:36.837Z,19.63
2023-03-21T01:31:03.453Z,19.64
2023-03-21T01:33:30.187Z,19.63
2023-03-21T01:36:06.510Z,19.63
2023-03-21T01:38:38.349Z,19.62
2023-03-21T01:41:17.107Z,19.62
2023-03-21T01:43:45.891Z,19.61
2023-03-21T01:46:12.278Z,19.62
2023-03-21T01:49:12.293Z,19.62
2023-03-21T01:51:50.238Z,19.61
2023-03-21T01:54:21.006Z,19.60
2023-03-21T01:56:47.887Z,19.57
2023-03-21T01:59:21.591Z,19.57
2023-03-21T02:02:07.267Z,19.55
2023-03-21T02:04:38.237Z,19.55
2023-03-21T02:07:14.397Z,19.55
2023-03-21T02:09:46.758Z,19.55
2023-03-21T02:12:16.400Z,19.54
2023-03-21T02:14:43.976Z,19.54
2023-03-21T02:17:27.217Z,19.54
2023-03-21T02:20:08.675Z,19.54
2023-03-21T02:22:53.950Z,19.53
2023-03-21T02:25:39.509Z,19.53
2023-03-21T02:28:09.212Z,19.53
2023-03-21T02:30:51.929Z,19.52
2023-03-21T02:33:35.432Z,19.53
2023-03-21T02:36:11.917Z,19.53
2023-03-21T02:38:47.669Z,19.50
2023-03-21T02:52:45.709Z,19.51
2023-03-21T02:55:15.391Z,19.50
2023-03-21T02:57:56.709Z,19.49
2023-03-21T03:00:27.335Z,19.50
2023-03-21T03:03:08.064Z,19.50
2023-03-21T03:05:37.140Z,19.49
2023-03-21T03:08:09.491Z,19.49
2023-03-21T03:10:51.296Z,19.49
2023-03-21T03:13:24.320Z,19.47
2023-03-21T03:15:57.116Z,19.47
2023-03-21T03:18:33.477Z,19.48
2023-03-21T03:21:29.048Z,19.46
2023-03-21T03:24:07.045Z,19.46
2023-03-21T03:26:34.279Z,19.46
2023-03-21T03:29:05.215Z,19.44
2023-03-21T03:31:38.032Z,19.44
2023-03-21T03:34:07.028Z,19.44
2023-03-21T03:36:39.265Z,19.45
2023-03-21T03:39:13.141Z,19.45
2023-03-21T03:42:07.800Z,19.48
2023-03-21T03:44:38.122Z,19.48
2023-03-21T03:47:15.214Z,19.50
2023-03-21T03:49:48.351Z,19.53
2023-03-21T03:52:26.447Z,19.56
2023-03-21T03:54:59.439Z,19.57
2023-03-21T03:57:26.225Z,19.59
2023-03-21T03:59:53.620Z,19.60
2023-03-21T04:02:43.144Z,19.60
2023-03-21T04:05:09.824Z,19.60
2023-03-21T04:07:36.151Z,19.61
2023-03-21T04:10:02.692Z,19.61
2023-03-21T04:12:31.501Z,19.62
2023-03-21T04:15:17.160Z,19.62
2023-03-21T04:17:48.275Z,19.63
2023-03-21T04:20:23.607Z,19.66
2023-03-21T04:22:56.625Z,19.66
2023-03-21T04:25:32.719Z,19.69
2023-03-21T04:27:59.639Z,19.68
2023-03-21T04:30:35.442Z,19.68
2023-03-21T04:33:07.656Z,19.69
2023-03-21T04:35:37.648Z,19.68
2023-03-21T04:38:05.068Z,19.67
2023-03-21T04:40:31.626Z,19.67
2023-03-21T04:42:58.024Z,19.67
2023-03-21T04:45:24.355Z,19.67
2023-03-21T04:47:50.896Z,19.69
2023-03-21T04:50:17.320Z,19.69
2023-03-21T04:52:43.732Z,19.70
2023-03-21T04:55:10.100Z,19.71
2023-03-21T04:57:38.328Z,19.73
2023-03-21T05:00:09.436Z,19.74
2023-03-21T05:02:36.476Z,19.75
2023-03-21T05:05:02.823Z,19.74
2023-03-21T05:07:31.219Z,19.74
2023-03-21T05:09:57.559Z,19.74
2023-03-21T05:12:23.968Z,19.74
2023-03-21T05:14:50.355Z,19.72
2023-03-21T05:17:23.041Z,19.74
2023-03-21T05:19:52.685Z,19.75
2023-03-21T05:22:19.447Z,19.76
2023-03-21T05:24:50.174Z,19.76
2023-03-21T05:27:36.932Z,19.77
2023-03-21T05:30:10.973Z,19.78
2023-03-21T05:33:02.245Z,19.79
2023-03-21T05:35:29.162Z,19.78
2023-03-21T05:37:58.350Z,19.78
2023-03-21T05:40:27.365Z,19.79
2023-03-21T05:42:56.884Z,19.79
2023-03-21T05:45:24.436Z,19.79
2023-03-21T05:47:51.591Z,19.78
2023-03-21T05:50:19.792Z,19.77
2023-03-21T05:52:58.743Z,19.77
2023-03-21T05:55:25.184Z,19.78
2023-03-21T05:57:52.293Z,19.79
2023-03-21T06:00:24.716Z,19.80
2023-03-21T06:03:07.726Z,19.81
2023-03-21T06:06:07.673Z,19.81
2023-03-21T06:08:38.917Z,19.83
2023-03-21T06:11:17.628Z,19.82
2023-03-21T06:13:44.159Z,19.82
2023-03-21T06:16:10.567Z,19.83
2023-03-21T06:18:37.796Z,19.82
2023-03-21T06:21:33.171Z,19.81
2023-03-21T06:23:59.502Z,19.81
2023-03-21T06:26:25.855Z,19.81
2023-03-21T06:28:53.648Z,19.81
2023-03-21T06:31:23.213Z,19.82
2023-03-21T06:33:51.597Z,19.84
2023-03-21T06:36:18.067Z,19.84
2023-03-21T06:38:44.426Z,19.85
2023-03-21T06:41:11.207Z,19.86
2023-03-21T06:43:42.939Z,19.87
2023-03-21T06:46:09.270Z,19.87
2023-03-21T06:48:37.449Z,19.85
2023-03-21T06:51:04.841Z,19.78
2023-03-21T06:53:35.096Z,18.23
2023-03-21T06:56:24.887Z,17.41
2023-03-21T06:58:51.548Z,17.61
2023-03-21T07:01:34.798Z,17.35
2023-03-21T07:04:06.252Z,16.64
2023-03-21T07:06:32.818Z,16.65
2023-03-21T07:08:59.245Z,16.36
2023-03-21T07:11:25.612Z,15.96
2023-03-21T07:13:52.029Z,16.13
2023-03-21T07:16:18.453Z,16.07
2023-03-21T07:18:45.380Z,15.75
2023-03-21T07:21:11.853Z,16.21
2023-03-21T07:23:39.424Z,17.19
2023-03-21T07:26:05.920Z,18.23
2023-03-21T07:28:32.334Z,18.82
2023-03-21T07:30:59.224Z,19.43
2023-03-21T07:33:25.558Z,19.75
2023-03-21T07:35:54.031Z,19.44
2023-03-21T07:38:21.155Z,19.14
2023-03-21T07:40:48.145Z,19.09
2023-03-21T07:43:14.734Z,19.10
2023-03-21T07:45:43.541Z,19.09
2023-03-21T07:48:10.371Z,19.05
2023-03-21T07:50:36.796Z,19.03
2023-03-21T07:53:03.131Z,18.91
2023-03-21T07:55:29.628Z,18.72
2023-03-21T07:57:55.967Z,18.63
2023-03-21T08:00:25.268Z,18.73
2023-03-21T08:02:57.936Z,18.94
2023-03-21T08:05:26.010Z,19.13
2023-03-21T08:07:52.388Z,19.25
2023-03-21T08:10:18.721Z,19.34
2023-03-21T08:12:45.261Z,19.40
2023-03-21T08:15:12.546Z,19.45
2023-03-21T08:17:39.879Z,19.50
2023-03-21T08:20:08.216Z,19.54
2023-03-21T08:22:35.000Z,19.57
2023-03-21T08:25:01.410Z,19.59
2023-03-21T08:27:27.743Z,19.62
2023-03-21T08:29:54.065Z,19.64
2023-03-21T08:32:20.446Z,19.64
2023-03-21T08:34:46.805Z,19.90
2023-03-21T08:37:13.170Z,20.14
2023-03-21T08:39:39.654Z,20.23
2023-03-21T08:42:06.022Z,20.35
2023-03-21T08:44:32.344Z,20.17
2023-03-21T08:46:58.683Z,20.11
2023-03-21T08:49:26.072Z,20.08
2023-03-21T08:51:55.339Z,20.05
2023-03-21T08:54:21.720Z,19.99
2023-03-21T08:56:48.049Z,19.99
2023-03-21T08:59:14.516Z,20.06
2023-03-21T09:01:41.170Z,20.36
2023-03-21T09:04:10.717Z,20.49
2023-03-21T09:06:37.523Z,20.61
2023-03-21T09:09:05.874Z,20.55
2023-03-21T09:11:32.197Z,20.84
2023-03-21T09:13:58.540Z,20.93
2023-03-21T09:16:25.021Z,20.98
2023-03-21T09:18:55.732Z,21.01
2023-03-21T09:21:22.819Z,21.03
2023-03-21T09:23:52.576Z,20.98
2023-03-21T09:26:19.234Z,20.65
2023-03-21T09:28:46.281Z,20.44
2023-03-21T09:31:12.856Z,20.51
2023-03-21T09:33:40.673Z,20.49
2023-03-21T09:36:11.758Z,20.33
2023-03-21T09:38:39.501Z,20.32
2023-03-21T09:41:08.866Z,20.40
2023-03-21T09:43:35.470Z,20.42
2023-03-21T09:46:04.798Z,20.50
2023-03-21T09:48:37.675Z,17.02
2023-03-21T09:51:06.143Z,18.87
2023-03-21T09:53:33.354Z,19.86
2023-03-21T09:56:00.116Z,20.24
2023-03-21T09:58:28.204Z,20.41
2023-03-21T10:01:22.201Z,20.51
2023-03-21T10:03:50.334Z,20.56
2023-03-21T10:06:16.786Z,20.58
2023-03-21T10:08:44.996Z,20.61
2023-03-21T10:11:27.996Z,20.34
2023-03-21T10:13:58.736Z,20.37
2023-03-21T10:16:27.480Z,20.39
2023-03-21T10:18:54.025Z,20.50
2023-03-21T10:21:51.510Z,20.50
2023-03-21T10:24:20.624Z,20.62
2023-03-21T10:26:46.955Z,20.54
2023-03-21T10:29:13.935Z,20.81
2023-03-21T10:31:40.381Z,21.03
2023-03-21T10:34:09.899Z,21.14
2023-03-21T10:36:36.324Z,21.18
2023-03-21T10:39:04.631Z,21.26
2023-03-21T10:41:31.267Z,21.00
2023-03-21T10:44:04.344Z,20.80
2023-03-21T10:46:32.129Z,20.76
2023-03-21T10:48:59.854Z,20.83
2023-03-21T10:51:27.352Z,20.84
2023-03-21T10:53:54.661Z,20.82
2023-03-21T10:56:23.129Z,20.80
2023-03-21T10:58:49.451Z,20.72
2023-03-21T11:01:22.014Z,20.67
2023-03-21T11:03:48.432Z,20.69
2023-03-21T11:06:22.707Z,21.08
2023-03-21T11:08:49.808Z,21.25
2023-03-21T11:11:20.433Z,21.10
2023-03-21T11:13:47.145Z,21.03
2023-03-21T11:16:23.063Z,21.09
2023-03-21T11:18:50.222Z,21.08
2023-03-21T11:21:16.895Z,21.13
2023-03-21T11:23:47.939Z,20.83
2023-03-21T11:26:19.953Z,21.07
2023-03-21T11:28:46.283Z,21.22
2023-03-21T11:31:12.760Z,21.03
2023-03-21T11:33:40.582Z,21.08
2023-03-21T11:36:25.007Z,21.04
2023-03-21T11:38:52.291Z,21.10
2023-03-21T11:41:25.710Z,21.10
2023-03-21T11:43:52.232Z,21.13
2023-03-21T11:46:22.480Z,21.05
2023-03-21T11:48:48.919Z,20.01
2023-03-21T11:51:21.610Z,19.64
2023-03-21T11:53:49.330Z,19.86
2023-03-21T11:56:20.586Z,20.63
2023-03-21T11:59:06.796Z,21.05
2023-03-21T12:01:52.253Z,20.94
2023-03-21T12:04:31.814Z,20.85
2023-03-21T12:07:13.534Z,21.12
2023-03-21T12:09:52.840Z,21.18
2023-03-21T12:12:39.243Z,21.20
2023-03-21T12:15:25.784Z,21.22
2023-03-21T12:18:01.169Z,21.41
2023-03-21T12:20:37.436Z,21.17
2023-03-21T12:23:08.545Z,21.10
2023-03-21T12:25:56.281Z,21.06
2023-03-21T12:28:32.648Z,21.05
2023-03-21T12:31:05.864Z,21.07
2023-03-21T12:33:41.909Z,21.23
2023-03-21T12:36:27.164Z,20.82
2023-03-21T12:39:12.411Z,20.89
2023-03-21T12:41:38.653Z,21.15
2023-03-21T12:44:09.648Z,21.26
2023-03-21T12:46:39.992Z,21.32
2023-03-21T12:49:21.994Z,21.00
2023-03-21T12:51:48.638Z,20.70
2023-03-21T12:54:17.588Z,20.64
2023-03-21T12:56:46.829Z,20.44
2023-03-21T12:59:16.188Z,20.44
2023-03-21T13:01:42.920Z,20.49
2023-03-21T13:04:28.294Z,20.46
2023-03-21T13:06:54.630Z,20.47
2023-03-21T13:09:36.813Z,20.46
2023-03-21T13:12:07.774Z,20.45
2023-03-21T13:14:35.602Z,20.44
2023-03-21T13:17:06.749Z,20.40
2023-03-21T13:19:37.988Z,20.42
2023-03-21T13:22:12.266Z,20.40
2023-03-21T13:24:39.557Z,20.65
2023-03-21T13:27:07.006Z,20.93
2023-03-21T13:29:34.557Z,20.93
2023-03-21T13:32:07.137Z,20.89
2023-03-21T13:34:34.319Z,20.96
2023-03-21T13:37:00.710Z,20.86
2023-03-21T13:39:27.797Z,20.84
2023-03-21T13:41:54.662Z,20.95
2023-03-21T13:44:25.713Z,21.21
2023-03-21T13:46:56.296Z,21.28
2023-03-21T13:49:26.659Z,21.33
2023-03-21T13:51:53.495Z,21.28
2023-03-21T13:54:21.728Z,21.30
2023-03-21T13:56:51.756Z,21.17
2023-03-21T13:59:36.429Z,20.98
2023-03-21T14:02:11.864Z,21.01
2023-03-21T14:04:43.283Z,21.22
2023-03-21T14:07:21.722Z,21.41
2023-03-21T14:09:48.966Z,21.38
2023-03-21T14:12:19.217Z,21.29
2023-03-21T14:14:46.414Z,21.24
2023-03-21T14:17:21.962Z,21.10
2023-03-21T14:19:50.921Z,21.04
2023-03-21T14:22:17.322Z,21.06
2023-03-21T14:24:59.268Z,21.05
2023-03-21T14:27:25.988Z,21.25
2023-03-21T14:29:53.343Z,21.44
2023-03-21T14:32:21.539Z,21.55
2023-03-21T14:34:48.819Z,21.61
2023-03-21T14:37:34.426Z,21.28
2023-03-21T14:40:01.345Z,21.47
2023-03-21T14:42:27.748Z,21.57
2023-03-21T14:44:56.572Z,21.54
2023-03-21T14:47:24.036Z,21.60
2023-03-21T14:49:50.388Z,21.73
2023-03-21T14:52:18.289Z,21.66
2023-03-21T14:54:45.320Z,21.61
2023-03-21T14:57:12.203Z,21.67
2023-03-21T14:59:38.797Z,21.60
2023-03-21T15:02:06.296Z,21.60
2023-03-21T15:04:32.924Z,21.60
2023-03-21T15:07:01.680Z,21.60
2023-03-21T15:09:30.057Z,21.39
2023-03-21T15:11:56.635Z,21.26
2023-03-21T15:14:27.107Z,21.34
2023-03-21T15:16:53.832Z,21.36
2023-03-21T15:19:23.202Z,21.26
2023-03-21T15:21:51.065Z,21.20
2023-03-21T15:24:18.348Z,21.18
2023-03-21T15:26:45.989Z,21.18
2023-03-21T15:29:12.318Z,21.20
2023-03-21T15:31:39.093Z,21.21
2023-03-21T15:34:05.443Z,21.21
2023-03-21T15:36:37.535Z,21.27
2023-03-21T15:39:04.192Z,21.32
2023-03-21T15:41:31.045Z,21.31
2023-03-21T15:44:09.513Z,21.31
2023-03-21T15:46:42.520Z,21.29
2023-03-21T15:49:14.600Z,21.32
2023-03-21T15:51:41.399Z,21.39
2023-03-21T15:54:12.879Z,21.36
2023-03-21T15:56:42.251Z,21.46
2023-03-21T15:59:12.748Z,21.48
2023-03-21T16:01:39.256Z,21.63
2023-03-21T16:04:06.989Z,21.66
2023-03-21T16:06:33.676Z,21.69
2023-03-21T16:09:09.044Z,21.69
2023-03-21T16:11:39.554Z,21.71
2023-03-21T16:14:05.896Z,21.73
2023-03-21T16:16:32.257Z,21.65
2023-03-21T16:18:58.844Z,21.58
2023-03-21T16:21:26.588Z,21.55
2023-03-21T16:23:52.934Z,21.54
2023-03-21T16:26:20.862Z,21.57
2023-03-21T16:28:47.183Z,21.59
2023-03-21T16:31:14.154Z,21.55
2023-03-21T16:33:40.488Z,21.44
2023-03-21T16:36:09.941Z,21.38
2023-03-21T16:38:36.262Z,21.57
2023-03-21T17:04:03.463Z,21.20
2023-03-21T17:06:30.188Z,21.42
2023-03-21T17:08:56.806Z,21.34
2023-03-21T17:11:23.469Z,21.39
2023-03-21T17:13:50.471Z,21.23
2023-03-21T17:16:20.793Z,20.99
2023-03-21T17:18:47.172Z,20.86
2023-03-21T17:21:14.631Z,20.73
2023-03-21T17:23:40.990Z,20.87
2023-03-21T17:26:10.624Z,20.77
2023-03-21T17:28:37.252Z,20.82
2023-03-21T17:31:04.279Z,20.81
2023-03-21T17:33:31.076Z,20.58
2023-03-21T17:35:57.447Z,20.49
2023-03-21T17:38:23.810Z,20.53
2023-03-21T17:40:50.629Z,20.62
2023-03-21T17:43:17.616Z,20.61
2023-03-21T17:45:44.264Z,20.60
2023-03-21T17:48:10.726Z,20.60
2023-03-21T17:50:39.152Z,20.57
2023-03-21T17:53:05.940Z,20.57
2023-03-21T17:55:32.352Z,20.57
2023-03-21T17:57:58.727Z,20.55
2023-03-21T18:00:26.012Z,20.53
2023-03-21T18:02:52.408Z,20.51
2023-03-21T18:05:19.059Z,20.49
2023-03-21T18:08:08.857Z,20.48
2023-03-21T18:10:31.742Z,20.46
2023-03-21T18:12:58.913Z,20.43
2023-03-21T18:15:25.393Z,20.45
2023-03-21T18:17:51.724Z,20.22
2023-03-21T18:20:19.905Z,19.94
2023-03-21T18:22:46.410Z,19.63
2023-03-21T18:25:12.806Z,19.57
2023-03-21T18:28:02.100Z,19.62
2023-03-21T18:30:45.071Z,19.74
2023-03-21T18:33:12.306Z,19.78
2023-03-21T18:35:38.710Z,19.78
2023-03-21T18:38:06.608Z,19.76
2023-03-21T18:40:32.935Z,19.72
2023-03-21T18:43:49.988Z,19.51
2023-03-21T18:45:45.592Z,20.47
2023-03-21T18:48:13.352Z,20.42
2023-03-21T18:50:40.587Z,20.55
2023-03-21T18:53:07.479Z,20.48
2023-03-21T18:55:45.380Z,20.78
2023-03-21T18:58:13.182Z,20.78
2023-03-21T19:00:39.859Z,20.92
2023-03-21T19:03:19.266Z,21.03
2023-03-21T19:05:57.724Z,20.96
2023-03-21T19:08:24.144Z,20.64
2023-03-21T19:10:51.202Z,20.59
2023-03-21T19:13:17.575Z,20.57
2023-03-21T19:15:43.922Z,20.53
2023-03-21T19:21:00.824Z,20.45
2023-03-21T19:23:39.825Z,20.50
2023-03-21T19:26:13.557Z,20.48
2023-03-21T19:28:39.886Z,20.48
2023-03-21T19:31:06.676Z,20.48
2023-03-21T19:33:33.201Z,20.50
2023-03-21T19:36:13.005Z,20.50
2023-03-21T19:38:44.137Z,20.50
2023-03-21T19:41:10.521Z,20.52
2023-03-21T19:43:36.874Z,20.46
2023-03-21T19:46:03.236Z,20.44
2023-03-21T19:48:29.636Z,20.44
2023-03-21T19:53:42.758Z,20.45
2023-03-21T19:56:21.201Z,20.42
2023-03-21T19:58:49.419Z,20.47
2023-03-21T20:01:15.816Z,20.30
2023-03-21T20:03:44.103Z,20.41
2023-03-21T20:06:11.529Z,20.41
2023-03-21T20:09:05.402Z,20.41
2023-03-21T20:11:24.192Z,20.40
2023-03-21T20:13:50.559Z,20.40
2023-03-21T20:16:20.357Z,20.40
2023-03-21T20:18:46.950Z,20.38
2023-03-21T20:21:17.890Z,20.36
2023-03-21T20:23:49.056Z,20.37
2023-03-21T20:26:16.247Z,20.35
2023-03-21T20:28:55.942Z,20.34
2023-03-21T20:31:29.098Z,20.35
2023-03-21T20:33:55.575Z,20.32
2023-03-21T20:36:40.516Z,20.30
2023-03-21T20:39:07.591Z,20.29
2023-03-21T20:41:33.967Z,20.27
2023-03-21T20:46:49.530Z,20.26
2023-03-21T20:49:15.899Z,20.25
2023-03-21T20:54:29.569Z,20.24
2023-03-21T20:56:56.691Z,20.22
2023-03-21T20:59:27.151Z,20.22
2023-03-21T21:01:54.783Z,20.21
2023-03-21T21:04:22.424Z,20.20
2023-03-21T21:06:49.354Z,20.19
2023-03-21T21:09:15.942Z,20.19
2023-03-21T21:14:28.677Z,20.17
2023-03-21T21:16:55.053Z,20.16
2023-03-21T21:19:21.612Z,20.16
2023-03-21T21:21:48.006Z,20.16
2023-03-21T21:24:14.749Z,20.14
2023-03-21T21:26:46.106Z,20.13
2023-03-21T21:29:16.575Z,20.14
2023-03-21T21:31:44.385Z,20.13
2023-03-21T21:34:10.854Z,20.12
2023-03-21T21:36:37.262Z,20.10
2023-03-21T21:39:04.233Z,20.09
2023-03-21T21:41:30.638Z,20.09
2023-03-21T21:43:56.973Z,20.08
2023-03-21T21:46:23.371Z,20.08
2023-03-21T21:48:49.721Z,20.08
2023-03-21T21:51:26.106Z,20.07
2023-03-21T21:53:55.736Z,20.06
2023-03-21T21:56:22.695Z,20.05
2023-03-21T21:58:49.024Z,20.05
2023-03-21T22:01:15.425Z,20.04
2023-03-21T22:03:42.656Z,20.03
2023-03-21T22:06:09.279Z,20.05
2023-03-21T22:08:38.539Z,20.07
2023-03-21T22:11:04.930Z,20.06
2023-03-21T22:13:31.270Z,20.07
2023-03-21T22:15:57.645Z,20.06
2023-03-21T22:18:24.020Z,20.06
2023-03-21T22:20:50.473Z,20.05
2023-03-21T22:23:19.299Z,20.01
2023-03-21T22:25:49.296Z,20.01
2023-03-21T22:28:17.717Z,19.99
2023-03-21T22:30:44.030Z,19.99
2023-03-21T22:33:10.371Z,19.98
2023-03-21T22:35:36.761Z,19.97
2023-03-21T22:38:03.126Z,19.99
2023-03-21T22:40:29.446Z,20.01
2023-03-21T22:42:55.781Z,19.98
2023-03-21T22:45:22.094Z,19.98
2023-03-21T22:47:48.523Z,19.97
2023-03-21T22:50:14.884Z,19.95
2023-03-21T22:52:41.254Z,19.94
2023-03-21T22:55:09.901Z,19.94
2023-03-21T22:57:36.251Z,19.94
2023-03-21T23:00:03.000Z,19.92
2023-03-21T23:02:29.340Z,19.93
2023-03-21T23:04:55.833Z,19.93
2023-03-21T23:07:22.185Z,19.91
2023-03-21T23:09:48.509Z,19.91
2023-03-21T23:12:14.904Z,19.90
2023-03-21T23:14:41.449Z,19.89
2023-03-21T23:17:10.004Z,19.90
2023-03-21T23:19:36.355Z,19.89
2023-03-21T23:22:02.690Z,19.90
2023-03-21T23:24:29.054Z,19.88
2023-03-21T23:26:55.482Z,19.88
2023-03-21T23:29:21.806Z,19.88
2023-03-21T23:31:48.148Z,19.87
2023-03-21T23:34:14.483Z,19.87
2023-03-21T23:36:40.946Z,19.86
2023-03-21T23:39:07.480Z,19.86
2023-03-21T23:41:33.941Z,19.84
2023-03-21T23:44:00.268Z,19.85
2023-03-21T23:46:26.604Z,19.84
2023-03-21T23:48:53.005Z,19.84
2023-03-21T23:51:19.383Z,19.84
2023-03-21T23:53:45.778Z,19.83
2023-03-21T23:56:18.836Z,19.83
2023-03-21T23:58:45.505Z,19.82
